createdAt,value
2023-04-08T00:00:09.910Z,6.65
2023-04-08T00:02:43.018Z,6.03
2023-04-08T00:05:12.291Z,7.80
2023-04-08T00:07:40.059Z,7.03
2023-04-08T00:10:09.155Z,6.82
2023-04-08T00:12:36.960Z,6.43
2023-04-08T00:15:05.228Z,7.13
2023-04-08T00:17:33.147Z,6.80
2023-04-08T00:20:01.277Z,7.10
2023-04-08T00:22:30.386Z,6.72
2023-04-08T00:24:58.893Z,8.05
2023-04-08T00:27:26.727Z,6.95
2023-04-08T00:29:54.530Z,7.63
2023-04-08T00:32:22.424Z,7.57
2023-04-08T00:34:50.903Z,7.18
2023-04-08T00:37:18.844Z,7.53
2023-04-08T00:39:48.027Z,7.53
2023-04-08T00:42:15.867Z,7.95
2023-04-08T00:44:43.713Z,7.30
2023-04-08T00:47:13.656Z,7.22
2023-04-08T00:49:41.698Z,6.40
2023-04-08T00:52:09.682Z,6.97
2023-04-08T00:54:38.584Z,6.72
2023-04-08T00:57:07.825Z,6.95
2023-04-08T00:59:36.924Z,7.22
2023-04-08T01:02:13.729Z,7.68
2023-04-08T01:04:48.424Z,7.03
2023-04-08T01:07:19.634Z,6.80
2023-04-08T01:09:53.356Z,6.90
2023-04-08T01:12:27.327Z,6.28
2023-04-08T01:15:01.365Z,6.05
2023-04-08T01:17:31.419Z,6.18
2023-04-08T01:20:01.572Z,5.88
2023-04-08T01:22:37.431Z,6.05
2023-04-08T01:25:09.544Z,5.03
2023-04-08T01:27:39.533Z,5.10
2023-04-08T01:30:10.222Z,4.22
2023-04-08T01:32:40.328Z,4.63
2023-04-08T01:35:10.465Z,3.80
2023-04-08T01:37:39.734Z,3.92
2023-04-08T01:40:10.079Z,4.07
2023-04-08T01:42:40.360Z,3.65
2023-04-08T01:45:10.157Z,4.13
2023-04-08T01:47:39.343Z,3.63
2023-04-08T01:50:10.098Z,3.55
2023-04-08T01:52:41.753Z,4.07
2023-04-08T01:55:10.000Z,3.92
2023-04-08T01:57:41.439Z,3.72
2023-04-08T02:00:12.141Z,4.25
2023-04-08T02:02:49.453Z,4.00
2023-04-08T02:05:17.647Z,3.80
2023-04-08T02:07:46.756Z,3.72
2023-04-08T02:10:14.732Z,3.75
2023-04-08T02:12:44.631Z,3.45
2023-04-08T02:15:13.178Z,3.45
2023-04-08T02:17:47.239Z,3.42
2023-04-08T02:20:19.196Z,3.85
2023-04-08T02:22:50.936Z,3.85
2023-04-08T02:25:23.106Z,3.30
2023-04-08T02:27:53.988Z,3.53
2023-04-08T02:30:23.449Z,3.40
2023-04-08T02:32:52.389Z,3.17
2023-04-08T02:35:21.320Z,3.30
2023-04-08T02:37:49.327Z,2.95
2023-04-08T02:40:28.445Z,3.22
2023-04-08T02:42:59.597Z,3.58
2023-04-08T02:45:29.254Z,2.75
2023-04-08T02:47:57.252Z,3.17
2023-04-08T02:50:25.332Z,3.35
2023-04-08T02:52:53.120Z,3.10
2023-04-08T02:55:20.954Z,3.25
2023-04-08T02:57:49.307Z,4.03
2023-04-08T03:00:18.950Z,3.83
2023-04-08T03:02:47.102Z,3.47
2023-04-08T03:05:16.298Z,3.83
2023-04-08T03:07:44.181Z,4.10
2023-04-08T03:10:13.286Z,3.72
2023-04-08T03:12:41.108Z,3.67
2023-04-08T03:15:09.584Z,4.35
2023-04-08T03:17:38.703Z,5.05
2023-04-08T03:20:07.795Z,3.80
2023-04-08T03:22:35.751Z,3.95
2023-04-08T03:25:04.402Z,4.43
2023-04-08T03:27:32.259Z,3.65
2023-04-08T03:29:59.990Z,4.78
2023-04-08T03:32:28.106Z,4.47
2023-04-08T03:34:57.228Z,5.18
2023-04-08T03:37:25.001Z,4.55
2023-04-08T03:39:52.788Z,5.47
2023-04-08T03:42:20.610Z,5.30
2023-04-08T03:44:48.420Z,5.38
2023-04-08T03:47:16.257Z,5.45
2023-04-08T03:49:43.988Z,3.95
2023-04-08T03:52:13.076Z,4.63
2023-04-08T03:54:40.807Z,5.30
2023-04-08T03:57:08.559Z,5.00
2023-04-08T03:59:36.479Z,4.18
2023-04-08T04:02:04.420Z,4.68
2023-04-08T04:04:32.491Z,5.22
2023-04-08T04:07:00.306Z,4.55
2023-04-08T04:09:29.550Z,5.18
2023-04-08T04:11:57.371Z,4.10
2023-04-08T04:14:25.369Z,4.85
2023-04-08T04:16:53.136Z,4.28
2023-04-08T04:19:21.058Z,4.97
2023-04-08T04:21:48.844Z,4.60
2023-04-08T04:24:16.642Z,4.35
2023-04-08T04:26:45.742Z,5.68
2023-04-08T04:29:13.500Z,4.47
2023-04-08T04:31:41.283Z,5.25
2023-04-08T04:34:09.056Z,5.13
2023-04-08T04:36:36.869Z,5.18
2023-04-08T04:39:04.787Z,5.28
2023-04-08T04:41:32.592Z,4.88
2023-04-08T04:44:02.018Z,5.35
2023-04-08T04:46:29.962Z,5.18
2023-04-08T04:48:57.742Z,5.18
2023-04-08T04:51:26.514Z,5.18
2023-04-08T04:53:54.263Z,4.60
2023-04-08T04:56:22.200Z,4.40
2023-04-08T04:58:50.242Z,4.50
2023-04-08T05:01:19.648Z,4.93
2023-04-08T05:03:47.488Z,5.10
2023-04-08T05:06:15.486Z,6.05
2023-04-08T05:08:43.257Z,5.40
2023-04-08T05:11:11.519Z,5.40
2023-04-08T05:13:39.294Z,5.45
2023-04-08T05:16:07.889Z,4.68
2023-04-08T05:18:37.048Z,5.40
2023-04-08T05:21:04.954Z,4.90
2023-04-08T05:23:32.791Z,6.07
2023-04-08T05:26:00.918Z,4.72
2023-04-08T05:28:28.696Z,4.97
2023-04-08T05:30:56.698Z,4.63
2023-04-08T05:33:26.476Z,4.15
2023-04-08T05:35:55.624Z,4.72
2023-04-08T05:38:23.396Z,6.43
2023-04-08T05:40:51.458Z,4.20
2023-04-08T05:43:19.232Z,4.80
2023-04-08T05:45:47.040Z,4.70
2023-04-08T05:48:14.820Z,4.47
2023-04-08T05:50:43.177Z,4.65
2023-04-08T05:53:12.318Z,4.35
2023-04-08T05:55:40.094Z,5.10
2023-04-08T05:58:07.949Z,4.60
2023-04-08T06:00:35.827Z,4.95
2023-04-08T06:03:03.856Z,8.55
2023-04-08T06:05:32.671Z,6.65
2023-04-08T06:08:00.683Z,6.10
2023-04-08T06:10:29.864Z,4.35
2023-04-08T06:12:57.703Z,4.68
2023-04-08T06:15:26.752Z,4.53
2023-04-08T06:17:54.584Z,8.18
2023-04-08T06:20:22.610Z,6.43
2023-04-08T06:22:50.495Z,4.22
2023-04-08T06:25:18.377Z,3.22
2023-04-08T06:27:48.405Z,13.15
2023-04-08T06:30:16.777Z,3.28
2023-04-08T06:32:47.221Z,8.55
2023-04-08T06:35:15.097Z,4.97
2023-04-08T06:37:43.218Z,2.92
2023-04-08T06:40:11.815Z,4.00
2023-04-08T06:42:40.896Z,15.10
2023-04-08T06:45:26.104Z,5.40
2023-04-08T06:47:56.399Z,2.40
2023-04-08T06:50:24.198Z,3.47
2023-04-08T06:52:52.017Z,3.15
2023-04-08T06:55:19.926Z,3.30
2023-04-08T06:57:47.698Z,3.33
2023-04-08T07:00:15.771Z,3.60
2023-04-08T07:02:44.980Z,5.80
2023-04-08T07:05:12.810Z,2.60
2023-04-08T07:07:40.633Z,3.10
2023-04-08T07:10:11.070Z,3.17
2023-04-08T07:12:39.102Z,3.67
2023-04-08T07:15:08.244Z,3.90
2023-04-08T07:17:36.097Z,3.63
2023-04-08T07:20:06.388Z,3.97
2023-04-08T07:22:34.336Z,3.38
2023-04-08T07:25:02.958Z,3.30
2023-04-08T07:27:30.739Z,3.22
2023-04-08T07:29:58.541Z,3.70
2023-04-08T07:32:26.447Z,4.07
2023-04-08T07:34:54.327Z,3.15
2023-04-08T07:37:23.439Z,3.22
2023-04-08T07:39:51.285Z,4.32
2023-04-08T07:42:19.404Z,3.90
2023-04-08T07:44:47.469Z,3.75
2023-04-08T07:47:15.260Z,3.85
2023-04-08T07:49:43.150Z,4.10
2023-04-08T07:52:10.930Z,4.22
2023-04-08T07:54:40.491Z,3.50
2023-04-08T07:57:08.262Z,4.72
2023-04-08T07:59:36.234Z,4.25
2023-04-08T08:02:04.278Z,4.95
2023-04-08T08:04:32.664Z,4.43
2023-04-08T08:07:00.692Z,5.28
2023-04-08T08:09:29.677Z,3.80
2023-04-08T08:12:00.180Z,4.65
2023-04-08T08:14:28.927Z,5.10
2023-04-08T08:16:57.048Z,5.10
2023-04-08T08:19:24.839Z,5.07
2023-04-08T08:21:52.775Z,5.10
2023-04-08T08:24:20.534Z,5.03
2023-04-08T08:26:49.318Z,5.32
2023-04-08T08:29:18.463Z,4.88
2023-04-08T08:31:48.466Z,5.43
2023-04-08T08:34:16.529Z,5.55
2023-04-08T08:36:44.337Z,5.45
2023-04-08T08:39:12.108Z,5.38
2023-04-08T08:41:42.293Z,5.85
2023-04-08T08:44:11.120Z,5.88
2023-04-08T08:46:45.090Z,4.57
2023-04-08T08:49:13.604Z,5.78
2023-04-08T08:51:41.754Z,4.63
2023-04-08T08:54:09.560Z,4.53
2023-04-08T08:56:37.363Z,4.53
2023-04-08T08:59:05.277Z,4.40
2023-04-08T09:01:35.200Z,4.35
2023-04-08T09:04:14.060Z,4.22
2023-04-08T09:06:42.204Z,4.55
2023-04-08T09:09:11.210Z,9.40
2023-04-08T09:11:40.785Z,7.68
2023-04-08T09:14:20.238Z,8.30
2023-04-08T09:16:48.194Z,6.32
2023-04-08T09:19:17.761Z,7.47
2023-04-08T09:21:46.000Z,6.82
2023-04-08T09:24:29.439Z,7.72
2023-04-08T09:26:57.619Z,6.25
2023-04-08T09:29:27.622Z,7.18
2023-04-08T09:31:58.714Z,7.07
2023-04-08T09:34:29.687Z,6.95
2023-04-08T09:36:57.550Z,7.22
2023-04-08T09:39:25.747Z,7.28
2023-04-08T09:41:54.264Z,7.45
2023-04-08T09:44:27.383Z,8.10
2023-04-08T09:47:02.756Z,8.07
2023-04-08T09:49:39.837Z,8.63
2023-04-08T09:52:09.232Z,8.85
2023-04-08T09:54:43.696Z,8.80
2023-04-08T09:57:17.264Z,9.17
2023-04-08T09:59:51.230Z,10.02
2023-04-08T10:02:30.490Z,10.70
2023-04-08T10:05:04.952Z,10.35
2023-04-08T10:07:35.795Z,10.02
2023-04-08T10:10:03.980Z,10.55
2023-04-08T10:12:32.214Z,10.55
2023-04-08T10:15:28.776Z,12.07
2023-04-08T10:18:18.477Z,11.38
2023-04-08T10:20:49.261Z,11.50
2023-04-08T10:23:19.060Z,12.10
2023-04-08T10:25:47.935Z,11.70
2023-04-08T10:28:26.234Z,11.88
2023-04-08T10:30:55.515Z,11.40
2023-04-08T10:33:25.296Z,13.50
2023-04-08T10:36:00.268Z,12.52
2023-04-08T10:38:28.670Z,13.23
2023-04-08T10:40:56.460Z,12.85
2023-04-08T10:43:24.306Z,15.80
2023-04-08T10:45:54.643Z,19.08
2023-04-08T10:48:24.664Z,21.05
2023-04-08T10:50:58.273Z,16.60
2023-04-08T10:53:28.764Z,15.23
2023-04-08T10:56:04.219Z,25.85
2023-04-08T10:58:32.052Z,17.67
2023-04-08T11:01:05.011Z,14.63
2023-04-08T11:03:34.602Z,14.45
2023-04-08T11:06:04.048Z,16.73
2023-04-08T11:08:32.347Z,14.55
2023-04-08T11:11:01.601Z,14.90
2023-04-08T11:13:29.765Z,15.10
2023-04-08T11:15:58.067Z,17.10
2023-04-08T11:18:26.271Z,14.40
2023-04-08T11:20:54.706Z,14.65
2023-04-08T11:23:26.401Z,14.27
2023-04-08T11:25:54.679Z,14.52
2023-04-08T11:28:23.242Z,13.93
2023-04-08T11:30:51.318Z,14.07
2023-04-08T11:33:19.159Z,14.00
2023-04-08T11:35:46.945Z,14.25
2023-04-08T11:38:14.893Z,15.07
2023-04-08T11:40:53.833Z,14.07
2023-04-08T11:43:22.103Z,14.07
2023-04-08T11:45:50.356Z,14.35
2023-04-08T11:48:18.662Z,13.93
2023-04-08T11:50:46.725Z,15.02
2023-04-08T11:53:19.570Z,13.50
2023-04-08T11:55:49.556Z,15.23
2023-04-08T11:58:17.808Z,15.95
2023-04-08T12:00:46.009Z,15.73
2023-04-08T12:03:14.476Z,15.07
2023-04-08T12:05:42.491Z,16.05
2023-04-08T12:08:10.473Z,16.10
2023-04-08T12:10:38.546Z,15.10
2023-04-08T12:13:08.562Z,15.48
2023-04-08T12:15:36.364Z,15.50
2023-04-08T12:18:04.298Z,16.60
2023-04-08T12:20:32.281Z,16.50
2023-04-08T12:23:00.051Z,15.95
2023-04-08T12:25:29.105Z,15.65
2023-04-08T12:27:56.869Z,15.98
2023-04-08T12:30:26.017Z,15.77
2023-04-08T12:32:55.323Z,16.45
2023-04-08T12:35:23.344Z,15.27
2023-04-08T12:37:51.162Z,16.27
2023-04-08T12:40:20.500Z,16.58
2023-04-08T12:42:48.564Z,17.20
2023-04-08T12:45:16.575Z,16.75
2023-04-08T12:47:45.744Z,18.02
2023-04-08T12:50:14.529Z,16.98
2023-04-08T12:52:42.358Z,17.70
2023-04-08T12:55:11.167Z,17.08
2023-04-08T12:57:38.931Z,18.02
2023-04-08T13:00:08.012Z,19.35
2023-04-08T13:02:35.896Z,18.15
2023-04-08T13:05:05.496Z,18.20
2023-04-08T13:07:33.264Z,18.70
2023-04-08T13:10:01.289Z,19.52
2023-04-08T13:12:29.153Z,19.73
2023-04-08T13:14:57.293Z,18.35
2023-04-08T13:17:25.211Z,19.88
2023-04-08T13:19:52.997Z,19.08
2023-04-08T13:22:22.144Z,19.42
2023-04-08T13:24:52.020Z,18.00
2023-04-08T13:27:19.808Z,19.48
2023-04-08T13:29:47.583Z,19.17
2023-04-08T13:32:15.879Z,20.65
2023-04-08T13:34:43.774Z,19.33
2023-04-08T13:37:11.872Z,19.67
2023-04-08T13:39:41.260Z,18.90
2023-04-08T13:42:09.047Z,19.02
2023-04-08T13:44:36.882Z,20.63
2023-04-08T13:47:04.674Z,22.52
2023-04-08T13:49:32.887Z,20.90
2023-04-08T13:52:00.863Z,20.67
2023-04-08T13:54:28.853Z,20.58
2023-04-08T13:56:58.040Z,21.58
2023-04-08T13:59:25.945Z,19.98
2023-04-08T14:01:55.167Z,21.00
2023-04-08T14:04:23.160Z,20.42
2023-04-08T14:06:53.073Z,20.98
2023-04-08T14:09:21.475Z,21.23
2023-04-08T14:11:49.225Z,21.45
2023-04-08T14:14:18.358Z,18.80
2023-04-08T14:16:46.291Z,19.50
2023-04-08T14:19:14.661Z,18.95
2023-04-08T14:21:42.538Z,17.00
2023-04-08T14:24:10.392Z,18.48
2023-04-08T14:26:38.450Z,16.73
2023-04-08T14:29:07.278Z,18.10
2023-04-08T14:31:36.822Z,17.23
2023-04-08T14:34:05.439Z,17.95
2023-04-08T14:36:33.782Z,17.35
2023-04-08T14:39:01.722Z,18.52
2023-04-08T14:41:29.509Z,18.73
2023-04-08T14:43:57.281Z,18.67
2023-04-08T14:46:28.862Z,17.77
2023-04-08T14:48:58.794Z,18.23
2023-04-08T14:51:26.801Z,18.45
2023-04-08T14:53:54.614Z,18.10
2023-04-08T14:56:22.407Z,17.73
2023-04-08T14:58:50.409Z,18.17
2023-04-08T15:01:18.337Z,17.15
2023-04-08T15:03:47.358Z,18.05
2023-04-08T15:06:18.630Z,19.33
2023-04-08T15:08:46.714Z,20.10
2023-04-08T15:11:14.536Z,18.48
2023-04-08T15:13:42.296Z,19.83
2023-04-08T15:16:11.390Z,19.58
2023-04-08T15:18:40.772Z,19.58
2023-04-08T15:21:09.012Z,20.88
2023-04-08T15:23:41.843Z,20.38
2023-04-08T15:26:09.838Z,18.52
2023-04-08T15:28:38.233Z,20.27
2023-04-08T15:31:06.902Z,20.92
2023-04-08T15:33:35.357Z,19.58
2023-04-08T15:36:04.033Z,18.17
2023-04-08T15:38:33.592Z,20.20
2023-04-08T15:41:02.793Z,20.35
2023-04-08T15:43:31.277Z,19.17
2023-04-08T15:45:59.016Z,20.35
2023-04-08T15:48:26.901Z,20.73
2023-04-08T15:50:54.763Z,19.67
2023-04-08T15:53:22.908Z,20.33
2023-04-08T15:55:50.743Z,19.83
2023-04-08T15:58:19.891Z,18.92
2023-04-08T16:00:47.681Z,22.08
2023-04-08T16:03:15.637Z,19.63
2023-04-08T16:05:43.483Z,21.63
2023-04-08T16:08:11.597Z,20.42
2023-04-08T16:10:39.397Z,18.67
2023-04-08T16:13:07.534Z,19.33
2023-04-08T16:15:37.271Z,19.05
2023-04-08T16:18:06.276Z,17.75
2023-04-08T16:20:34.138Z,18.33
2023-04-08T16:23:01.904Z,19.20
2023-04-08T16:25:29.806Z,18.08
2023-04-08T16:27:57.628Z,19.83
2023-04-08T16:30:26.366Z,19.20
2023-04-08T16:32:55.925Z,19.73
2023-04-08T16:35:23.795Z,18.92
2023-04-08T16:37:51.700Z,18.30
2023-04-08T16:40:19.490Z,19.95
2023-04-08T16:42:47.285Z,18.25
2023-04-08T16:45:15.783Z,19.60
2023-04-08T16:47:44.424Z,20.67
2023-04-08T16:50:13.841Z,21.35
2023-04-08T16:52:43.861Z,19.63
2023-04-08T16:55:13.410Z,17.25
2023-04-08T16:57:42.314Z,17.80
2023-04-08T17:00:11.302Z,18.35
2023-04-08T17:02:39.243Z,16.33
2023-04-08T17:05:07.543Z,17.70
2023-04-08T17:07:36.746Z,16.25
2023-04-08T17:10:05.069Z,17.05
2023-04-08T17:12:33.348Z,15.90
2023-04-08T17:15:01.160Z,17.88
2023-04-08T17:17:29.013Z,17.17
2023-04-08T17:19:56.967Z,17.63
2023-04-08T17:22:24.811Z,17.08
2023-04-08T17:24:54.134Z,18.27
2023-04-08T17:27:22.273Z,17.38
2023-04-08T17:29:56.157Z,18.98
2023-04-08T17:32:24.587Z,20.60
2023-04-08T17:34:52.674Z,20.00
2023-04-08T17:37:20.496Z,18.70
2023-04-08T17:39:48.270Z,18.83
2023-04-08T17:42:17.371Z,21.50
2023-04-08T17:44:45.173Z,18.60
2023-04-08T17:47:13.273Z,19.50
2023-04-08T17:49:41.099Z,18.15
2023-04-08T17:52:09.163Z,19.88
2023-04-08T17:54:36.955Z,19.70
2023-04-08T17:57:04.890Z,19.98
2023-04-08T17:59:34.075Z,18.00
2023-04-08T18:02:01.936Z,19.30
2023-04-08T18:04:29.975Z,19.30
2023-04-08T18:06:57.925Z,19.75
2023-04-08T18:09:25.778Z,17.98
2023-04-08T18:11:53.518Z,19.00
2023-04-08T18:14:21.333Z,18.85
2023-04-08T18:16:50.554Z,19.05
2023-04-08T18:19:18.780Z,19.83
2023-04-08T18:21:46.631Z,19.45
2023-04-08T18:24:14.416Z,19.65
2023-04-08T18:26:43.835Z,19.45
2023-04-08T18:29:11.754Z,19.05
2023-04-08T18:31:39.502Z,19.65
2023-04-08T18:34:08.965Z,20.48
2023-04-08T18:36:37.032Z,21.52
2023-04-08T18:39:05.391Z,21.80
2023-04-08T18:41:33.169Z,21.30
2023-04-08T18:44:03.053Z,21.92
2023-04-08T18:46:31.309Z,21.75
2023-04-08T18:48:59.628Z,19.77
2023-04-08T18:51:28.872Z,19.83
2023-04-08T18:53:56.942Z,20.63
2023-04-08T18:56:25.044Z,21.00
2023-04-08T18:58:54.577Z,22.10
2023-04-08T19:01:22.513Z,21.83
2023-04-08T19:03:50.779Z,21.40
2023-04-08T19:06:22.404Z,23.60
2023-04-08T19:08:51.520Z,21.63
2023-04-08T19:11:19.522Z,19.90
2023-04-08T19:13:47.398Z,21.23
2023-04-08T19:16:15.479Z,18.10
2023-04-08T19:18:43.277Z,18.02
2023-04-08T19:21:11.692Z,18.02
2023-04-08T19:23:39.455Z,18.35
2023-04-08T19:26:08.738Z,16.95
2023-04-08T19:28:36.884Z,18.13
2023-04-08T19:31:04.862Z,19.85
2023-04-08T19:33:32.799Z,19.15
2023-04-08T19:36:00.962Z,17.85
2023-04-08T19:38:28.782Z,17.45
2023-04-08T19:40:56.548Z,18.08
2023-04-08T19:43:25.689Z,16.70
2023-04-08T19:45:54.484Z,17.48
2023-04-08T19:48:22.412Z,18.00
2023-04-08T19:50:52.136Z,18.27
2023-04-08T19:53:20.102Z,20.05
2023-04-08T19:55:48.061Z,18.83
2023-04-08T19:58:15.979Z,19.15
2023-04-08T20:00:45.386Z,18.90
2023-04-08T20:03:13.880Z,19.23
2023-04-08T20:05:42.883Z,18.90
2023-04-08T20:08:10.646Z,19.90
2023-04-08T20:10:38.497Z,19.92
2023-04-08T20:13:06.373Z,18.23
2023-04-08T20:15:34.210Z,20.50
2023-04-08T20:18:03.404Z,18.63
2023-04-08T20:20:31.224Z,18.95
2023-04-08T20:22:59.484Z,17.15
2023-04-08T20:25:27.268Z,18.45
2023-04-08T20:27:55.043Z,17.35
2023-04-08T20:30:22.861Z,18.17
2023-04-08T20:32:50.769Z,17.23
2023-04-08T20:35:21.046Z,18.35
2023-04-08T20:37:48.961Z,19.33
2023-04-08T20:40:18.317Z,17.83
2023-04-08T20:42:46.580Z,18.67
2023-04-08T20:45:14.411Z,17.40
2023-04-08T20:47:44.500Z,17.75
2023-04-08T20:50:12.516Z,18.10
2023-04-08T20:52:41.659Z,17.17
2023-04-08T20:55:10.396Z,17.40
2023-04-08T20:57:38.240Z,17.40
2023-04-08T21:00:10.197Z,17.77
2023-04-08T21:02:38.235Z,17.75
2023-04-08T21:05:06.352Z,18.58
2023-04-08T21:07:34.145Z,18.05
2023-04-08T21:10:03.584Z,18.23
2023-04-08T21:12:31.378Z,17.38
2023-04-08T21:14:59.111Z,17.40
2023-04-08T21:17:30.536Z,17.20
2023-04-08T21:19:58.356Z,17.13
2023-04-08T21:22:26.124Z,17.15
2023-04-08T21:24:53.934Z,16.63
2023-04-08T21:27:23.110Z,17.77
2023-04-08T21:29:52.774Z,15.30
2023-04-08T21:32:20.786Z,15.55
2023-04-08T21:34:48.573Z,17.58
2023-04-08T21:37:16.378Z,16.80
2023-04-08T21:39:44.149Z,16.60
2023-04-08T21:42:12.078Z,16.00
2023-04-08T21:44:41.187Z,16.80
2023-04-08T21:47:08.994Z,16.77
2023-04-08T21:49:36.827Z,15.02
2023-04-08T21:52:04.915Z,16.50
2023-04-08T21:54:32.711Z,17.00
2023-04-08T21:57:01.418Z,17.35
2023-04-08T21:59:29.241Z,18.00
2023-04-08T22:01:58.324Z,17.27
2023-04-08T22:04:26.115Z,17.20
2023-04-08T22:06:54.565Z,16.77
2023-04-08T22:09:22.418Z,16.95
2023-04-08T22:11:50.537Z,17.98
2023-04-08T22:14:18.397Z,18.15
2023-04-08T22:16:46.410Z,18.20
2023-04-08T22:19:15.550Z,17.13
2023-04-08T22:21:43.353Z,17.33
2023-04-08T22:24:11.256Z,16.95
2023-04-08T22:26:39.027Z,17.65
2023-04-08T22:29:07.318Z,17.60
2023-04-08T22:31:35.123Z,17.00
2023-04-08T22:34:03.041Z,16.33
2023-04-08T22:36:32.183Z,18.77
2023-04-08T22:38:59.934Z,17.52
2023-04-08T22:41:27.721Z,17.33
2023-04-08T22:43:55.498Z,17.83
2023-04-08T22:46:23.351Z,17.42
2023-04-08T22:48:51.739Z,17.10
2023-04-08T22:51:19.659Z,17.27
2023-04-08T22:53:48.783Z,18.48
2023-04-08T22:56:16.573Z,17.30
2023-04-08T22:58:44.381Z,18.83
2023-04-08T23:01:13.734Z,18.98
2023-04-08T23:03:41.694Z,17.95
2023-04-08T23:06:09.715Z,18.10
2023-04-08T23:08:38.614Z,19.35
2023-04-08T23:11:08.032Z,19.65
2023-04-08T23:13:36.068Z,19.00
2023-04-08T23:16:03.923Z,20.60
2023-04-08T23:18:31.789Z,21.45
2023-04-08T23:20:59.670Z,20.45
2023-04-08T23:23:27.439Z,19.60
2023-04-08T23:25:55.860Z,20.70
2023-04-08T23:28:25.164Z,20.60
2023-04-08T23:30:53.563Z,20.67
2023-04-08T23:33:21.412Z,19.92
2023-04-08T23:35:49.256Z,21.65
2023-04-08T23:38:17.101Z,21.10
2023-04-08T23:40:44.865Z,22.25
2023-04-08T23:43:12.636Z,20.45
2023-04-08T23:45:41.722Z,19.65
2023-04-08T23:48:10.272Z,21.25
2023-04-08T23:50:38.160Z,20.90
2023-04-08T23:53:06.097Z,22.10
2023-04-08T23:55:33.866Z,21.33
2023-04-08T23:58:01.633Z,20.20
